Time;durP1;ratioP1;P1;durP2;ratioP2;P2;SDS_P1;SDS_P2;PMS_P1;PMS_P2;Temp;Humidity;BMP_temperature;BMP_pressure;BME280_temperature;BME280_humidity;BME280_pressure;Samples;Min_cycle;Max_cycle;Signal;HPM_P1;HPM_P2
2021/12/10 00:01:04;;;;;;;48.00;24.67;;;;;;;;;;4977294;28;20049;-69
2021/12/10 00:03:32;;;;;;;49.13;23.15;;;;;;;;;;4963772;28;20060;-69
2021/12/10 00:08:33;;;;;;;49.97;23.75;;;5.00;99.90;;;;;;5048351;23;20462;-69
2021/12/10 00:11:01;;;;;;;46.53;24.05;;;4.90;99.90;;;;;;5016399;28;20044;-69
2021/12/10 00:13:28;;;;;;;49.65;22.98;;;;;;;;;;5034069;28;20438;-68
2021/12/10 00:15:55;;;;;;;46.38;22.42;;;;;;;;;;5048669;28;20100;-69
2021/12/10 00:18:24;;;;;;;47.67;22.52;;;;;;;;;;5033665;28;20041;-69
2021/12/10 00:20:57;;;;;;;51.78;22.73;;;4.70;99.90;;;;;;5032328;28;20041;-68
2021/12/10 00:23:23;;;;;;;57.78;24.05;;;;;;;;;;5033838;28;20044;-69
2021/12/10 00:25:51;;;;;;;48.25;23.48;;;;;;;;;;5031923;28;20048;-69
2021/12/10 00:28:22;;;;;;;51.47;21.50;;;;;;;;;;5032180;28;20048;-69
2021/12/10 00:32:05;;;;;;;45.67;22.17;;;4.90;99.90;;;;;;5032207;28;20041;-69
2021/12/10 00:34:12;;;;;;;46.03;21.92;;;;;;;;;;5024929;28;20049;-69
2021/12/10 00:36:38;;;;;;;51.80;22.50;;;4.90;99.90;;;;;;5031911;28;20041;-69
2021/12/10 00:39:05;;;;;;;46.05;22.98;;;;;;;;;;5032468;28;20399;-69
2021/12/10 00:41:31;;;;;;;45.10;22.38;;;;;;;;;;5032288;28;20392;-69
2021/12/10 00:43:57;;;;;;;46.80;22.42;;;;;;;;;;5033796;28;20075;-69
2021/12/10 00:46:23;;;;;;;42.13;21.00;;;4.90;99.90;;;;;;5032001;28;20423;-69
2021/12/10 00:48:49;;;;;;;42.97;20.60;;;;;;;;;;5032222;28;20049;-69
2021/12/10 00:51:15;;;;;;;48.03;21.25;;;5.00;99.90;;;;;;5032938;28;20033;-69
2021/12/10 00:53:42;;;;;;;51.35;22.92;;;4.80;99.90;;;;;;5033012;28;20107;-69
2021/12/10 00:56:08;;;;;;;49.13;24.13;;;;;;;;;;5031499;28;20491;-69
2021/12/10 00:58:35;;;;;;;47.55;23.48;;;;;;;;;;5031835;28;20042;-69
2021/12/10 01:01:04;;;;;;;50.53;23.15;;;;;;;;;;5031645;28;20188;-69
2021/12/10 01:03:33;;;;;;;48.03;22.50;;;;;;;;;;5031554;28;20042;-69
2021/12/10 01:06:02;;;;;;;47.05;21.35;;;5.10;99.90;;;;;;5031150;28;20038;-69
2021/12/10 01:08:29;;;;;;;50.80;22.30;;;;;;;;;;5032534;28;20075;-69
2021/12/10 01:11:01;;;;;;;47.97;22.80;;;5.00;99.90;;;;;;5031440;28;20052;-69
2021/12/10 01:13:31;;;;;;;39.88;21.35;;;;;;;;;;5031363;28;20042;-69
2021/12/10 01:23:42;;;;;;;43.10;20.48;;;;;;;;;;5032485;28;20061;-69
2021/12/10 01:25:06;;;;;;;46.15;21.77;;;4.80;99.90;;;;;;5030951;28;20057;-69
2021/12/10 01:27:35;;;;;;;41.78;21.05;;;4.70;99.90;;;;;;5030246;28;20033;-69
2021/12/10 01:30:04;;;;;;;37.17;18.58;;;;;;;;;;5030948;28;20033;-69
2021/12/10 01:32:33;;;;;;;37.38;18.85;;;;;;;;;;5032568;28;20367;-69
2021/12/10 01:34:59;;;;;;;45.20;18.40;;;;;;;;;;5031033;28;20046;-69
2021/12/10 01:37:25;;;;;;;34.75;18.88;;;;;;;;;;5030560;28;20103;-69
2021/12/10 01:39:51;;;;;;;37.85;18.02;;;4.70;99.90;;;;;;5030957;28;20057;-69
2021/12/10 01:44:52;;;;;;;41.35;20.17;;;;;;;;;;5030851;28;20488;-70
2021/12/10 01:47:23;;;;;;;32.40;16.88;;;4.80;99.90;;;;;;5030500;28;20065;-69
2021/12/10 01:49:49;;;;;;;31.67;18.15;;;;;;;;;;5030830;28;20120;-69
2021/12/10 01:52:16;;;;;;;35.65;17.90;;;4.70;99.90;;;;;;5030681;28;20053;-68
2021/12/10 01:54:47;;;;;;;36.88;18.15;;;4.70;99.90;;;;;;5030906;28;20045;-69
2021/12/10 01:57:15;;;;;;;32.38;17.63;;;4.70;99.90;;;;;;5030636;28;20475;-68
2021/12/10 01:59:42;;;;;;;33.58;17.40;;;4.90;99.90;;;;;;5030529;28;20045;-69
2021/12/10 02:02:12;;;;;;;40.83;16.88;;;4.70;99.90;;;;;;5030720;28;20049;-69
2021/12/10 02:04:39;;;;;;;36.95;15.98;;;4.90;99.90;;;;;;5031868;28;20103;-69
2021/12/10 02:07:06;;;;;;;33.13;16.02;;;;;;;;;;5031292;28;20037;-69
2021/12/10 02:09:32;;;;;;;32.85;15.95;;;;;;;;;;5031949;28;20086;-69
2021/12/10 02:11:59;;;;;;;32.53;15.27;;;;;;;;;;5030520;28;20145;-69
2021/12/10 02:14:25;;;;;;;33.00;15.25;;;;;;;;;;5030525;28;20321;-69
2021/12/10 02:16:55;;;;;;;28.10;15.20;;;4.90;99.90;;;;;;5030135;28;20149;-68
2021/12/10 02:19:21;;;;;;;35.05;16.30;;;;;;;;;;5030433;28;20073;-69
2021/12/10 02:21:47;;;;;;;28.42;14.93;;;;;;;;;;5030344;28;20056;-69
2021/12/10 02:24:15;;;;;;;28.98;14.80;;;4.80;99.90;;;;;;5030235;28;20052;-69
2021/12/10 02:26:55;;;;;;;31.08;14.75;;;4.80;99.90;;;;;;5013864;28;20044;-69
2021/12/10 02:29:26;;;;;;;30.58;15.70;;;;;;;;;;5030786;28;20030;-69
2021/12/10 02:31:54;;;;;;;29.88;13.82;;;4.70;99.90;;;;;;5014228;28;20081;-69
2021/12/10 02:34:20;;;;;;;24.23;13.32;;;;;;;;;;5030254;28;20320;-69
2021/12/10 02:36:46;;;;;;;27.27;14.43;;;;;;;;;;5029836;28;20045;-69
2021/12/10 02:39:14;;;;;;;30.15;13.18;;;4.90;99.90;;;;;;5031370;28;20087;-69
2021/12/10 02:41:41;;;;;;;26.85;13.40;;;5.00;99.90;;;;;;5034469;28;20056;-69
2021/12/10 02:44:12;;;;;;;32.72;16.50;;;4.90;99.90;;;;;;5034249;28;20454;-69
2021/12/10 02:46:38;;;;;;;27.85;13.38;;;4.80;99.90;;;;;;5033708;28;20048;-69
2021/12/10 02:49:05;;;;;;;25.25;13.45;;;;;;;;;;5034165;28;20076;-69
2021/12/10 02:51:32;;;;;;;25.70;12.68;;;;;;;;;;5034055;28;20052;-69
2021/12/10 02:53:58;;;;;;;26.50;14.55;;;4.70;99.90;;;;;;5033967;28;20533;-69
2021/12/10 02:56:24;;;;;;;26.60;13.77;;;4.90;99.90;;;;;;5033637;28;20045;-69
2021/12/10 02:58:53;;;;;;;30.02;13.90;;;5.00;99.90;;;;;;5034057;28;20030;-69
2021/12/10 03:01:29;;;;;;;27.13;13.80;;;4.90;99.90;;;;;;5033784;28;20556;-69
2021/12/10 03:03:55;;;;;;;36.03;15.18;;;;;;;;;;5034051;28;20046;-69
2021/12/10 03:06:22;;;;;;;25.30;13.55;;;;;;;;;;5033332;28;20045;-69
2021/12/10 03:08:50;;;;;;;25.77;14.80;;;;;;;;;;5033718;28;20044;-69
2021/12/10 03:11:19;;;;;;;28.05;14.32;;;5.00;99.90;;;;;;5033582;28;20124;-69
2021/12/10 03:13:45;;;;;;;32.83;14.07;;;4.80;99.90;;;;;;5033689;28;20045;-69
2021/12/10 03:16:11;;;;;;;27.90;14.43;;;4.80;99.90;;;;;;5033269;28;20037;-68
2021/12/10 03:18:38;;;;;;;35.97;15.18;;;4.80;99.90;;;;;;5033784;28;20411;-69
2021/12/10 03:21:09;;;;;;;29.10;15.30;;;4.80;99.90;;;;;;5033919;28;20117;-69
2021/12/10 03:23:37;;;;;;;29.48;13.77;;;4.90;99.90;;;;;;5033677;28;20037;-69
2021/12/10 03:26:03;;;;;;;24.50;12.98;;;;;;;;;;5033074;28;20609;-69
2021/12/10 03:28:29;;;;;;;22.65;14.27;;;;;;;;;;5034695;28;20041;-69
2021/12/10 03:30:55;;;;;;;28.15;14.70;;;;;;;;;;5033409;28;20037;-69
2021/12/10 03:33:20;;;;;;;25.98;14.23;;;4.90;99.90;;;;;;5033565;28;20033;-69
2021/12/10 03:35:50;;;;;;;32.00;14.93;;;4.60;99.90;;;;;;5033239;28;20495;-69
2021/12/10 03:38:20;;;;;;;29.67;14.88;;;4.90;99.90;;;;;;5033382;28;20056;-69
2021/12/10 03:40:46;;;;;;;28.27;14.27;;;;;;;;;;5034378;28;20041;-68
2021/12/10 03:43:12;;;;;;;27.98;13.52;;;;;;;;;;5033022;28;20049;-69
2021/12/10 03:45:40;;;;;;;30.08;14.13;;;;;;;;;;5032683;28;20049;-68
2021/12/10 03:48:12;;;;;;;28.75;14.27;;;4.70;99.90;;;;;;5032899;28;20037;-69
2021/12/10 03:50:39;;;;;;;31.38;14.00;;;4.80;99.90;;;;;;5031940;28;20042;-69
2021/12/10 03:53:05;;;;;;;22.95;13.57;;;4.50;99.90;;;;;;5033465;28;20048;-69
2021/12/10 03:55:31;;;;;;;30.55;13.27;;;4.40;99.90;;;;;;5032994;28;20034;-69
2021/12/10 03:57:57;;;;;;;25.70;12.98;;;4.50;99.90;;;;;;5016520;28;20514;-70
2021/12/10 04:00:28;;;;;;;29.35;14.35;;;4.50;99.90;;;;;;5032886;28;20052;-69
2021/12/10 04:02:55;;;;;;;29.95;12.77;;;;;;;;;;5032878;28;20045;-69
2021/12/10 04:05:21;;;;;;;18.73;12.25;;;;;;;;;;5032448;28;20507;-68
2021/12/10 04:07:47;;;;;;;25.75;12.10;;;;;;;;;;5032394;28;20078;-69
2021/12/10 04:10:15;;;;;;;27.52;14.05;;;4.60;99.90;;;;;;5032803;28;20045;-69
2021/12/10 04:12:41;;;;;;;25.00;13.60;;;4.60;99.90;;;;;;5032516;28;20491;-69
2021/12/10 04:15:09;;;;;;;24.58;11.82;;;4.50;99.90;;;;;;5032721;28;20095;-69
2021/12/10 04:17:35;;;;;;;24.42;11.63;;;4.40;99.90;;;;;;5032054;28;20045;-68
2021/12/10 04:20:02;;;;;;;19.88;11.18;;;;;;;;;;5032668;28;20391;-69
2021/12/10 04:22:32;;;;;;;26.50;12.57;;;;;;;;;;5016229;28;20537;-69
2021/12/10 04:24:59;;;;;;;32.47;12.85;;;4.50;99.90;;;;;;5032207;28;20136;-69
2021/12/10 04:27:26;;;;;;;29.90;12.60;;;;;;;;;;5031916;28;20120;-68
2021/12/10 04:29:55;;;;;;;25.40;11.85;;;;;;;;;;5015929;28;20037;-69
2021/12/10 04:32:21;;;;;;;22.13;10.80;;;4.30;99.90;;;;;;5033419;28;20044;-69
2021/12/10 04:34:47;;;;;;;23.67;12.15;;;4.30;99.90;;;;;;5032151;28;20045;-69
2021/12/10 04:37:13;;;;;;;20.67;11.65;;;4.10;99.90;;;;;;5031956;28;20053;-68
2021/12/10 04:39:45;;;;;;;19.83;11.55;;;;;;;;;;5031941;28;20533;-69
2021/12/10 04:42:11;;;;;;;21.75;10.95;;;4.10;99.90;;;;;;5032343;28;20454;-69
2021/12/10 04:44:37;;;;;;;21.85;10.68;;;4.00;99.90;;;;;;5033070;28;20103;-68
2021/12/10 04:47:03;;;;;;;20.85;11.38;;;;;;;;;;5031532;28;20045;-69
2021/12/10 04:49:29;;;;;;;24.13;11.50;;;;;;;;;;5032051;28;20050;-69
2021/12/10 04:51:55;;;;;;;21.30;11.27;;;;;;;;;;5031826;28;20045;-69
2021/12/10 04:54:23;;;;;;;25.98;11.95;;;;;;;;;;5031632;28;20414;-69
2021/12/10 04:56:50;;;;;;;18.60;10.88;;;3.90;99.90;;;;;;5031515;28;20561;-69
2021/12/10 04:59:17;;;;;;;24.30;11.52;;;;;;;;;;5031719;28;20048;-69
2021/12/10 05:01:44;;;;;;;24.17;11.70;;;;;;;;;;5031629;28;20049;-69
2021/12/10 05:04:12;;;;;;;23.45;13.10;;;3.70;99.90;;;;;;5030833;28;20033;-69
2021/12/10 05:06:38;;;;;;;24.50;11.07;;;;;;;;;;5031482;28;20442;-69
2021/12/10 05:09:05;;;;;;;20.08;11.48;;;;;;;;;;5031375;28;20064;-68
2021/12/10 05:11:31;;;;;;;21.80;11.90;;;3.80;99.90;;;;;;5031301;28;20041;-69
2021/12/10 05:13:57;;;;;;;24.77;11.45;;;;;;;;;;5031641;28;20041;-69
2021/12/10 05:16:26;;;;;;;20.63;11.38;;;;;;;;;;5031170;28;20044;-69
2021/12/10 05:18:57;;;;;;;27.73;12.52;;;;;;;;;;5031316;28;20056;-69
2021/12/10 05:21:24;;;;;;;20.05;10.73;;;3.50;99.90;;;;;;5031321;28;20045;-69
2021/12/10 05:23:50;;;;;;;19.60;10.57;;;3.60;99.90;;;;;;5031316;28;20076;-69
2021/12/10 05:26:15;;;;;;;16.70;10.40;;;3.60;99.90;;;;;;5030947;28;20041;-69
2021/12/10 05:28:41;;;;;;;26.10;11.30;;;;;;;;;;5031122;28;20060;-69
2021/12/10 05:31:07;;;;;;;25.10;12.18;;;;;;;;;;5031289;28;20115;-69
2021/12/10 05:33:33;;;;;;;20.20;12.35;;;;;;;;;;5031509;28;20222;-69
2021/12/10 05:36:01;;;;;;;20.27;11.48;;;;;;;;;;5031305;28;20361;-69
2021/12/10 05:38:27;;;;;;;25.80;13.02;;;3.50;99.90;;;;;;5030783;28;20049;-69
2021/12/10 05:40:54;;;;;;;25.90;13.02;;;;;;;;;;5030927;28;20044;-69
2021/12/10 05:43:20;;;;;;;22.48;12.75;;;;;;;;;;5030849;28;20045;-69
2021/12/10 05:45:47;;;;;;;27.58;13.23;;;3.50;99.90;;;;;;5031768;28;20087;-69
2021/12/10 05:48:13;;;;;;;25.27;13.90;;;3.50;99.90;;;;;;5030735;28;20127;-69
2021/12/10 05:50:39;;;;;;;25.55;13.52;;;;;;;;;;5030501;28;20124;-69
2021/12/10 05:53:05;;;;;;;29.60;14.57;;;;;;;;;;5030911;28;20056;-69
2021/12/10 05:55:32;;;;;;;26.27;15.05;;;3.50;99.90;;;;;;5030711;28;20187;-69
2021/12/10 05:57:58;;;;;;;29.42;15.80;;;3.50;99.90;;;;;;5030604;28;20058;-69
2021/12/10 06:00:26;;;;;;;25.88;15.27;;;;;;;;;;5030632;28;20041;-69
2021/12/10 06:02:53;;;;;;;25.50;15.63;;;3.50;99.90;;;;;;5030633;28;20046;-69
2021/12/10 06:05:19;;;;;;;28.58;15.50;;;;;;;;;;5031522;28;20073;-68
2021/12/10 06:07:45;;;;;;;25.67;16.38;;;;;;;;;;5047523;22;20045;-68
2021/12/10 06:10:13;;;;;;;26.95;14.98;;;3.60;99.90;;;;;;5014217;28;20407;-69
2021/12/10 06:12:39;;;;;;;26.55;15.05;;;;;;;;;;5030356;28;20071;-69
2021/12/10 06:15:06;;;;;;;24.00;14.88;;;;;;;;;;5013250;28;20045;-68
2021/12/10 06:17:32;;;;;;;31.02;16.38;;;;;;;;;;5013615;28;20068;-69
2021/12/10 06:19:59;;;;;;;28.08;15.85;;;;;;;;;;5013574;28;20057;-68
2021/12/10 06:22:25;;;;;;;25.42;15.32;;;;;;;;;;5013587;28;20049;-68
2021/12/10 06:24:51;;;;;;;28.40;15.05;;;;;;;;;;5013775;28;20049;-69
2021/12/10 06:27:17;;;;;;;31.73;17.77;;;;;;;;;;5013466;28;20042;-68
2021/12/10 06:29:43;;;;;;;29.35;15.50;;;;;;;;;;5014259;28;20041;-69
2021/12/10 06:32:10;;;;;;;29.00;16.00;;;3.50;99.90;;;;;;5031474;28;20067;-68
2021/12/10 06:34:36;;;;;;;25.55;15.32;;;3.30;99.90;;;;;;4997238;28;20042;-68
2021/12/10 06:37:03;;;;;;;30.25;17.70;;;;;;;;;;5013072;28;20041;-68
2021/12/10 06:39:29;;;;;;;29.02;17.60;;;;;;;;;;5013757;28;20045;-69
2021/12/10 06:41:55;;;;;;;27.92;15.63;;;;;;;;;;4997015;28;20276;-69
2021/12/10 06:44:21;;;;;;;28.00;18.15;;;;;;;;;;5013587;28;20042;-68
2021/12/10 06:46:48;;;;;;;30.38;16.25;;;3.10;99.90;;;;;;5012996;28;20033;-69
2021/12/10 06:49:15;;;;;;;25.23;16.80;;;;;;;;;;5013334;28;20041;-69
2021/12/10 06:51:41;;;;;;;26.65;15.63;;;;;;;;;;5012989;28;20033;-67
2021/12/10 06:54:07;;;;;;;33.85;16.48;;;;;;;;;;5013565;28;20390;-68
2021/12/10 06:56:35;;;;;;;26.00;16.20;;;;;;;;;;5013188;28;20033;-68
2021/12/10 06:59:02;;;;;;;24.92;15.52;;;;;;;;;;4997124;28;20034;-67
2021/12/10 07:01:30;;;;;;;23.98;14.90;;;;;;;;;;4997156;28;20068;-68
2021/12/10 07:03:57;;;;;;;28.00;16.40;;;;;;;;;;5013123;28;20042;-68
2021/12/10 07:06:25;;;;;;;24.50;14.93;;;3.10;99.90;;;;;;5012712;28;20041;-68
2021/12/10 07:08:51;;;;;;;27.52;15.40;;;3.20;99.90;;;;;;5013027;28;20037;-68
2021/12/10 07:11:19;;;;;;;26.60;15.25;;;;;;;;;;5013125;28;20106;-65
2021/12/10 07:13:48;;;;;;;26.63;15.20;;;;;;;;;;5013049;28;20384;-68
2021/12/10 07:16:14;;;;;;;29.48;14.38;;;3.10;99.90;;;;;;4996406;28;20128;-68
2021/12/10 07:18:40;;;;;;;23.35;13.90;;;3.10;99.90;;;;;;5013311;28;20494;-68
2021/12/10 07:21:07;;;;;;;23.25;15.05;;;;;;;;;;5013231;28;20076;-68
2021/12/10 07:23:33;;;;;;;23.20;13.95;;;;;;;;;;5013533;28;20049;-68
2021/12/10 07:26:00;;;;;;;21.63;13.65;;;;;;;;;;5013116;28;20053;-67
2021/12/10 07:28:26;;;;;;;22.73;12.63;;;;;;;;;;5016684;28;20045;-68
2021/12/10 07:30:52;;;;;;;21.58;13.45;;;;;;;;;;5000197;28;20499;-68
2021/12/10 07:33:18;;;;;;;23.00;12.48;;;;;;;;;;5016443;28;20053;-68
2021/12/10 07:35:45;;;;;;;21.63;11.85;;;;;;;;;;5015997;28;20268;-70
2021/12/10 07:38:11;;;;;;;20.67;12.52;;;;;;;;;;5000289;28;20467;-70
2021/12/10 07:40:38;;;;;;;20.63;13.43;;;;;;;;;;5016521;28;20128;-71
2021/12/10 07:43:06;;;;;;;19.35;12.00;;;2.90;99.90;;;;;;5016375;28;20491;-71
2021/12/10 07:45:32;;;;;;;22.95;13.95;;;;;;;;;;5015862;28;20041;-71
2021/12/10 07:47:59;;;;;;;25.75;12.40;;;3.00;99.90;;;;;;5016502;28;20406;-70
2021/12/10 07:50:30;;;;;;;18.08;11.02;;;3.00;99.90;;;;;;5015902;28;20041;-68
2021/12/10 07:52:56;;;;;;;20.02;10.93;;;2.90;99.90;;;;;;5016500;28;20076;-68
2021/12/10 07:55:24;;;;;;;17.33;11.25;;;;;;;;;;5015831;28;20137;-68
2021/12/10 07:57:51;;;;;;;20.55;11.18;;;3.00;99.90;;;;;;5016093;28;20053;-68
2021/12/10 08:00:19;;;;;;;20.38;12.07;;;;;;;;;;5016021;28;20048;-68
2021/12/10 08:02:45;;;;;;;19.05;11.07;;;;;;;;;;5016047;28;20569;-68
2021/12/10 08:05:12;;;;;;;22.77;11.38;;;;;;;;;;5016006;28;20096;-68
2021/12/10 08:07:38;;;;;;;17.17;10.32;;;;;;;;;;5015422;28;20080;-69
2021/12/10 08:10:05;;;;;;;17.70;11.07;;;;;;;;;;5015873;28;20069;-68
2021/12/10 08:12:30;;;;;;;20.20;10.75;;;;;;;;;;5015767;28;20037;-68
2021/12/10 08:14:56;;;;;;;21.15;10.88;;;;;;;;;;5015802;28;20458;-68
2021/12/10 08:17:24;;;;;;;19.38;10.43;;;;;;;;;;5032985;28;20073;-68
2021/12/10 08:19:50;;;;;;;19.83;11.40;;;;;;;;;;5015552;28;20088;-68
2021/12/10 08:22:16;;;;;;;19.10;11.30;;;;;;;;;;5015654;28;20088;-68
2021/12/10 08:24:42;;;;;;;23.70;11.18;;;;;;;;;;4999421;28;20467;-68
2021/12/10 08:27:08;;;;;;;20.77;10.73;;;;;;;;;;5015408;28;20045;-67
2021/12/10 08:29:34;;;;;;;16.35;9.88;;;;;;;;;;5015475;28;20045;-68
2021/12/10 08:32:02;;;;;;;16.13;10.00;;;;;;;;;;4999378;28;20052;-68
2021/12/10 08:34:28;;;;;;;17.50;10.05;;;3.10;99.90;;;;;;5033164;28;20099;-68
2021/12/10 08:36:54;;;;;;;16.38;9.82;;;;;;;;;;5014785;28;20037;-68
2021/12/10 08:39:20;;;;;;;14.68;9.68;;;;;;;;;;5015156;28;20124;-68
2021/12/10 08:41:47;;;;;;;14.07;8.63;;;;;;;;;;5015156;28;20088;-68
2021/12/10 08:44:13;;;;;;;16.48;8.82;;;;;;;;;;5015073;28;20456;-68
2021/12/10 08:46:41;;;;;;;21.73;10.15;;;;;;;;;;4998393;28;20124;-69
2021/12/10 08:49:07;;;;;;;16.15;9.05;;;;;;;;;;5014982;28;20558;-69
2021/12/10 08:51:35;;;;;;;18.42;9.57;;;;;;;;;;5014486;28;20037;-69
2021/12/10 08:54:01;;;;;;;15.57;9.50;;;;;;;;;;5015077;28;20045;-69
2021/12/10 08:56:28;;;;;;;14.48;9.05;;;;;;;;;;4998654;28;20321;-69
2021/12/10 08:58:56;;;;;;;15.88;9.00;;;3.10;99.90;;;;;;5014775;28;20633;-69
2021/12/10 09:01:24;;;;;;;15.98;9.52;;;;;;;;;;5014771;28;20120;-69
2021/12/10 09:03:53;;;;;;;14.48;8.40;;;3.20;99.90;;;;;;4998670;28;20041;-69
2021/12/10 09:06:21;;;;;;;14.15;8.38;;;;;;;;;;5014278;28;20041;-69
2021/12/10 09:08:47;;;;;;;18.27;9.63;;;3.20;99.90;;;;;;5014732;28;20116;-68
2021/12/10 09:11:14;;;;;;;16.35;8.57;;;;;;;;;;5014600;28;20137;-69
2021/12/10 09:13:40;;;;;;;15.07;8.05;;;;;;;;;;4998452;28;20045;-69
2021/12/10 09:16:11;;;;;;;19.17;8.48;;;;;;;;;;5014456;28;20045;-70
2021/12/10 09:18:39;;;;;;;18.58;8.45;;;;;;;;;;5014926;28;20525;-69
2021/12/10 09:21:08;;;;;;;11.45;7.97;;;;;;;;;;5014442;28;20056;-69
2021/12/10 09:23:34;;;;;;;17.10;8.15;;;;;;;;;;5014318;28;20049;-70
2021/12/10 09:26:02;;;;;;;11.52;7.15;;;;;;;;;;5013933;28;20410;-69
2021/12/10 09:28:28;;;;;;;12.30;7.28;;;;;;;;;;5014287;28;20099;-69
2021/12/10 09:30:56;;;;;;;14.43;8.65;;;;;;;;;;5014458;28;20072;-69
2021/12/10 09:33:22;;;;;;;12.60;7.20;;;;;;;;;;5014533;28;20414;-69
2021/12/10 09:35:48;;;;;;;20.70;8.00;;;;;;;;;;5014545;28;20045;-69
2021/12/10 09:38:15;;;;;;;15.18;7.57;;;;;;;;;;4998280;28;20542;-70
2021/12/10 09:40:43;;;;;;;13.38;7.32;;;;;;;;;;5014550;28;20049;-69
2021/12/10 09:43:10;;;;;;;11.88;7.15;;;;;;;;;;5014172;28;20084;-69
2021/12/10 09:45:38;;;;;;;15.70;7.47;;;3.50;99.90;;;;;;5013874;28;20359;-69
2021/12/10 09:48:05;;;;;;;13.35;7.57;;;;;;;;;;5030402;28;20037;-69
2021/12/10 09:50:33;;;;;;;15.95;7.50;;;;;;;;;;5013153;28;20048;-69
2021/12/10 09:52:59;;;;;;;18.95;8.05;;;;;;;;;;5014244;28;20060;-69
2021/12/10 09:55:27;;;;;;;13.50;7.75;;;;;;;;;;4997466;28;20045;-69
2021/12/10 09:57:53;;;;;;;14.35;7.03;;;3.70;99.90;;;;;;4997478;28;20041;-68
2021/12/10 10:00:29;;;;;;;14.63;7.85;;;4.00;99.90;;;;;;5013930;28;20039;-69
2021/12/10 10:02:56;;;;;;;12.77;6.93;;;;;;;;;;5013735;28;20503;-69
2021/12/10 10:05:26;;;;;;;10.85;6.90;;;;;;;;;;5013712;28;20052;-69
2021/12/10 10:07:54;;;;;;;13.68;7.22;;;;;;;;;;5013895;28;20049;-69
2021/12/10 10:10:20;;;;;;;12.80;7.13;;;;;;;;;;4997651;28;20045;-69
2021/12/10 10:12:50;;;;;;;13.55;8.35;;;4.10;99.90;;;;;;5013655;28;20040;-69
2021/12/10 10:15:18;;;;;;;13.50;7.03;;;;;;;;;;5029943;28;20528;-67
2021/12/10 10:17:45;;;;;;;15.73;7.40;;;;;;;;;;5013779;28;20049;-69
2021/12/10 10:20:13;;;;;;;12.15;6.57;;;4.10;99.90;;;;;;4997335;28;20507;-69
2021/12/10 10:22:39;;;;;;;13.38;6.53;;;;;;;;;;5013711;28;20053;-69
2021/12/10 10:25:08;;;;;;;15.20;7.10;;;;;;;;;;4997213;28;20519;-70
2021/12/10 10:27:35;;;;;;;9.95;6.28;;;;;;;;;;5013201;28;20042;-69
2021/12/10 10:30:06;;;;;;;11.93;6.97;;;;;;;;;;5013539;28;20040;-68
2021/12/10 10:32:35;;;;;;;10.90;6.18;;;4.20;99.90;;;;;;5013539;28;20034;-69
2021/12/10 10:35:16;;;;;;;12.35;6.65;;;4.20;99.90;;;;;;4997291;28;20037;-69
2021/12/10 10:37:42;;;;;;;12.25;6.03;;;;;;;;;;5013635;28;20392;-69
2021/12/10 10:40:12;;;;;;;10.93;6.30;;;4.30;99.90;;;;;;5013682;28;20458;-69
2021/12/10 10:42:38;;;;;;;13.30;6.20;;;;;;;;;;5013836;28;20177;-69
2021/12/10 10:45:06;;;;;;;9.63;5.78;;;;;;;;;;5013350;28;20045;-69
2021/12/10 10:47:32;;;;;;;12.10;5.85;;;;;;;;;;5013160;28;20037;-69
2021/12/10 10:50:11;;;;;;;15.85;5.65;;;;;;;;;;5031663;28;20038;-69
2021/12/10 10:52:38;;;;;;;9.90;5.72;;;;;;;;;;5030540;28;20041;-69
2021/12/10 10:55:10;;;;;;;11.27;5.60;;;4.30;99.90;;;;;;5013592;28;20443;-69
2021/12/10 10:57:36;;;;;;;10.35;5.75;;;;;;;;;;5013219;28;20049;-69
2021/12/10 11:00:13;;;;;;;11.85;5.70;;;;;;;;;;5031962;28;20042;-69
2021/12/10 11:02:49;;;;;;;9.65;5.43;;;;;;;;;;5017387;28;20510;-69
2021/12/10 11:05:16;;;;;;;8.80;5.32;;;;;;;;;;5016838;28;20137;-69
2021/12/10 11:07:49;;;;;;;13.20;4.78;;;4.70;99.90;;;;;;5000252;28;20168;-69
2021/12/10 11:10:34;;;;;;;10.40;5.53;;;4.60;99.90;;;;;;5017134;28;20124;-69
2021/12/10 11:13:11;;;;;;;16.42;5.80;;;;;;;;;;5016916;28;20045;-69
2021/12/10 11:15:38;;;;;;;12.75;5.85;;;;;;;;;;5016648;28;20487;-69
2021/12/10 11:18:04;;;;;;;7.72;4.47;;;;;;;;;;5016720;28;20099;-69
2021/12/10 11:20:34;;;;;;;11.88;5.32;;;4.60;99.90;;;;;;5017061;28;20490;-69
2021/12/10 11:23:02;;;;;;;6.43;4.25;;;;;;;;;;5000776;28;20056;-69
2021/12/10 11:25:43;;;;;;;8.00;4.07;;;;;;;;;;5000159;28;20045;-69
2021/12/10 11:28:11;;;;;;;12.80;5.40;;;;;;;;;;5016529;28;20041;-69
2021/12/10 11:30:41;;;;;;;12.23;4.55;;;;;;;;;;5000163;28;20038;-69
2021/12/10 11:33:09;;;;;;;8.68;3.60;;;;;;;;;;5016485;28;20044;-69
2021/12/10 11:35:40;;;;;;;10.10;4.60;;;;;;;;;;5016146;28;20041;-69
2021/12/10 11:38:08;;;;;;;6.80;4.25;;;4.70;99.90;;;;;;5016343;28;20041;-69
2021/12/10 11:40:39;;;;;;;12.00;4.35;;;;;;;;;;5016569;28;20111;-69
2021/12/10 11:46:05;;;;;;;10.60;4.60;;;;;;;;;;5016006;28;20045;-69
2021/12/10 11:48:35;;;;;;;10.05;5.03;;;4.80;99.90;;;;;;5000715;28;20041;-68
2021/12/10 11:51:19;;;;;;;6.57;4.32;;;;;;;;;;5016571;28;20403;-68
2021/12/10 11:53:48;;;;;;;7.10;4.13;;;;;;;;;;5016436;28;20107;-69
2021/12/10 11:56:19;;;;;;;11.98;4.95;;;4.80;99.90;;;;;;5017955;28;20045;-69
2021/12/10 11:58:57;;;;;;;9.20;4.68;;;;;;;;;;5017328;28;20391;-69
2021/12/10 12:01:22;;;;;;;10.27;4.13;;;4.90;99.90;;;;;;5016234;28;20041;-69
2021/12/10 12:03:48;;;;;;;7.18;4.22;;;;;;;;;;5016120;28;20045;-69
2021/12/10 12:06:18;;;;;;;9.38;4.63;;;5.00;99.90;;;;;;5015753;28;20041;-69
2021/12/10 12:08:45;;;;;;;7.00;4.45;;;5.20;99.90;;;;;;5081396;22;20098;-68
2021/12/10 12:11:11;;;;;;;9.07;3.72;;;;;;;;;;5053792;28;20047;-68
2021/12/10 12:13:42;;;;;;;9.23;4.68;;;;;;;;;;5068612;28;20068;-68
2021/12/10 12:16:14;;;;;;;8.00;4.40;;;;;;;;;;5068870;28;20522;-68
2021/12/10 12:18:46;;;;;;;8.15;5.00;;;4.80;99.90;;;;;;5053620;28;20116;-68
2021/12/10 12:26:52;;;;;;;11.23;4.10;;;5.00;99.90;;;;;;5052118;28;20114;-68
2021/12/10 12:29:18;;;;;;;7.20;3.97;;;5.00;99.90;;;;;;5053563;28;20049;-67
2021/12/10 12:31:48;;;;;;;9.43;4.18;;;4.80;99.90;;;;;;5053485;28;20437;-68
2021/12/10 12:34:22;;;;;;;10.02;4.50;;;4.90;99.90;;;;;;5068718;28;20037;-68
2021/12/10 12:36:51;;;;;;;6.93;4.30;;;5.00;99.90;;;;;;5051811;28;20083;-68
2021/12/10 12:39:29;;;;;;;9.55;4.47;;;;;;;;;;5035566;28;20487;-68
2021/12/10 12:41:54;;;;;;;8.95;4.32;;;4.80;99.90;;;;;;5051961;28;20091;-68
2021/12/10 12:44:34;;;;;;;7.47;4.95;;;5.00;99.90;;;;;;5051956;28;20036;-68
2021/12/10 12:47:06;;;;;;;7.57;4.25;;;;;;;;;;5051646;28;20037;-68
2021/12/10 12:49:53;;;;;;;9.32;4.10;;;;;;;;;;5051794;28;20041;-68
2021/12/10 12:52:19;;;;;;;10.25;4.35;;;;;;;;;;5052482;28;20041;-68
2021/12/10 12:55:23;;;;;;;9.05;4.82;;;4.80;99.90;;;;;;5051641;28;20041;-68
2021/12/10 12:57:51;;;;;;;9.20;4.18;;;;;;;;;;5068626;28;20044;-68
2021/12/10 13:00:24;;;;;;;7.78;4.20;;;;;;;;;;5051875;28;20051;-68
2021/12/10 13:02:51;;;;;;;8.73;4.38;;;;;;;;;;5035064;28;20102;-68
2021/12/10 13:05:18;;;;;;;7.93;3.92;;;;;;;;;;5034718;28;20131;-67
2021/12/10 13:07:44;;;;;;;12.15;4.47;;;;;;;;;;5051266;28;20087;-68
2021/12/10 13:10:17;;;;;;;12.18;4.32;;;5.10;99.90;;;;;;5051593;28;20037;-68
2021/12/10 13:15:29;;;;;;;9.10;4.35;;;4.90;99.90;;;;;;5051681;28;20098;-68
2021/12/10 13:18:02;;;;;;;5.95;3.47;;;5.10;99.90;;;;;;5051829;28;20198;-68
2021/12/10 13:20:30;;;;;;;8.88;4.20;;;;;;;;;;5068217;28;20041;-68
2021/12/10 13:23:00;;;;;;;9.10;3.75;;;5.00;99.90;;;;;;5051365;28;20406;-68
2021/12/10 13:25:29;;;;;;;7.05;3.50;;;;;;;;;;5050472;28;20033;-67
2021/12/10 13:27:57;;;;;;;7.82;3.67;;;;;;;;;;5050857;28;20032;-68
2021/12/10 13:30:57;;;;;;;8.95;3.63;;;4.90;99.90;;;;;;5051355;28;20098;-68
2021/12/10 13:33:25;;;;;;;6.93;3.38;;;;;;;;;;5033741;28;20410;-67
2021/12/10 13:35:51;;;;;;;10.60;3.55;;;5.00;99.90;;;;;;5050650;28;20608;-68
2021/12/10 13:38:20;;;;;;;8.77;3.60;;;4.90;99.90;;;;;;5034266;28;20491;-68
2021/12/10 13:40:48;;;;;;;7.75;3.92;;;4.90;99.90;;;;;;5050839;28;20083;-68
2021/12/10 13:43:15;;;;;;;9.30;4.05;;;5.00;99.90;;;;;;5051018;28;20068;-68
2021/12/10 13:45:44;;;;;;;7.25;4.35;;;4.80;99.90;;;;;;5050498;28;20045;-68
2021/12/10 13:48:14;;;;;;;12.40;4.55;;;;;;;;;;5050884;28;20395;-67
2021/12/10 13:51:02;;;;;;;6.70;3.92;;;;;;;;;;5033836;28;20063;-67
2021/12/10 13:53:28;;;;;;;9.70;4.30;;;;;;;;;;5050801;28;20037;-68
2021/12/10 13:56:14;;;;;;;7.22;4.28;;;;;;;;;;5050320;28;20067;-68
2021/12/10 13:58:52;;;;;;;11.98;4.40;;;4.60;99.90;;;;;;5050747;28;20106;-68
2021/12/10 14:01:21;;;;;;;12.90;4.63;;;;;;;;;;5050615;28;20491;-68
2021/12/10 14:04:16;;;;;;;7.60;3.92;;;4.70;99.90;;;;;;5050843;28;20410;-68
2021/12/10 14:06:49;;;;;;;12.13;4.82;;;4.60;99.90;;;;;;5066897;28;20044;-68
2021/12/10 14:09:40;;;;;;;10.02;4.25;;;;;;;;;;5066949;28;20037;-68
2021/12/10 14:15:01;;;;;;;8.55;4.30;;;;;;;;;;5050827;28;20052;-68